Time;durP1;ratioP1;P1;durP2;ratioP2;P2;SDS_P1;SDS_P2;PMS_P1;PMS_P2;Temp;Humidity;BMP_temperature;BMP_pressure;BME280_temperature;BME280_humidity;BME280_pressure;Samples;Min_cycle;Max_cycle;Signal;HPM_P1;HPM_P2
2022/05/09 00:00:00;;;;;;;9.23;1.27;;;9.50;99.50;;;;;;4963203;28;20511;-87
2022/05/09 00:02:26;;;;;;;8.68;1.05;;;9.40;99.70;;;;;;4948290;28;20042;-84
2022/05/09 00:04:51;;;;;;;7.45;1.05;;;9.40;99.90;;;;;;4970341;28;20023;-85
2022/05/09 00:07:17;;;;;;;8.82;1.67;;;9.30;99.90;;;;;;4952792;28;20035;-86
2022/05/09 00:09:42;;;;;;;11.85;0.90;;;9.30;99.90;;;;;;4951258;28;20139;-85
2022/05/09 00:12:09;;;;;;;5.22;1.08;;;9.30;99.90;;;;;;4954972;28;20029;-85
2022/05/09 00:14:35;;;;;;;7.80;0.82;;;9.20;99.90;;;;;;4954052;28;20034;-85
2022/05/09 00:17:00;;;;;;;6.22;1.08;;;9.20;99.90;;;;;;4968880;28;20039;-85
2022/05/09 00:19:26;;;;;;;6.15;0.80;;;9.10;99.90;;;;;;4954857;28;20027;-86
2022/05/09 00:21:52;;;;;;;5.90;1.20;;;9.10;99.90;;;;;;4953412;28;20105;-85
2022/05/09 00:24:19;;;;;;;6.53;1.25;;;9.00;99.90;;;;;;4951119;28;20139;-85
2022/05/09 00:26:46;;;;;;;14.25;1.35;;;9.00;99.90;;;;;;4952808;28;20054;-84
2022/05/09 00:29:14;;;;;;;8.23;1.20;;;9.00;99.90;;;;;;4957116;28;20458;-85
2022/05/09 00:31:43;;;;;;;11.68;1.23;;;8.90;99.90;;;;;;4954620;28;20126;-86
2022/05/09 00:34:12;;;;;;;9.18;1.40;;;8.90;99.90;;;;;;4952991;28;20387;-86
2022/05/09 00:36:39;;;;;;;8.52;1.30;;;8.80;99.90;;;;;;4952572;28;20155;-86
2022/05/09 00:39:05;;;;;;;6.47;1.10;;;8.80;99.90;;;;;;4944203;28;20050;-85
2022/05/09 00:41:41;;;;;;;8.23;1.50;;;8.80;99.90;;;;;;4953740;28;20031;-85
2022/05/09 00:44:09;;;;;;;7.63;1.17;;;8.70;99.90;;;;;;4955538;28;20027;-86
2022/05/09 00:46:37;;;;;;;8.85;2.33;;;8.70;99.90;;;;;;4953800;28;20027;-85
2022/05/09 00:49:32;;;;;;;9.98;1.17;;;8.70;99.90;;;;;;4946722;28;20023;-85
2022/05/09 00:52:15;;;;;;;8.35;1.77;;;8.70;99.90;;;;;;4953714;28;20023;-85
2022/05/09 00:54:49;;;;;;;10.60;1.33;;;8.60;99.90;;;;;;4949339;28;20026;-85
2022/05/09 00:57:37;;;;;;;10.93;1.90;;;8.60;99.90;;;;;;4965748;28;20038;-85
2022/05/09 01:00:08;;;;;;;11.15;1.30;;;8.60;99.90;;;;;;4966390;28;20028;-86
2022/05/09 01:02:37;;;;;;;7.63;1.35;;;8.60;99.90;;;;;;4963607;28;20032;-86
2022/05/09 01:05:03;;;;;;;9.63;1.80;;;8.50;99.90;;;;;;4955036;28;20022;-86
2022/05/09 01:07:30;;;;;;;10.25;1.88;;;8.60;99.90;;;;;;4950710;28;20090;-85
2022/05/09 01:09:57;;;;;;;9.63;1.70;;;8.50;99.90;;;;;;4955063;28;20027;-85
2022/05/09 01:12:28;;;;;;;10.25;1.40;;;8.50;99.90;;;;;;4951352;28;20387;-86
2022/05/09 01:14:54;;;;;;;12.38;1.92;;;8.50;99.90;;;;;;4952455;28;20035;-86
2022/05/09 01:17:22;;;;;;;12.43;1.83;;;8.40;99.90;;;;;;4967589;28;20046;-85
2022/05/09 01:19:52;;;;;;;10.63;1.27;;;8.40;99.90;;;;;;4963434;28;20023;-85
2022/05/09 01:22:28;;;;;;;7.50;1.75;;;8.40;99.90;;;;;;4946496;28;20118;-86
2022/05/09 01:25:00;;;;;;;10.80;1.58;;;8.40;99.90;;;;;;4961235;28;20031;-85
2022/05/09 01:27:25;;;;;;;9.60;1.27;;;8.30;99.90;;;;;;4948145;28;20023;-85
2022/05/09 01:30:14;;;;;;;8.52;2.03;;;8.30;99.90;;;;;;4948209;28;20069;-85
2022/05/09 01:32:50;;;;;;;6.72;1.25;;;8.30;99.90;;;;;;4962695;28;20162;-85
2022/05/09 01:35:28;;;;;;;7.65;1.42;;;8.20;99.90;;;;;;4946473;28;20030;-86
2022/05/09 01:38:04;;;;;;;8.10;1.70;;;8.20;99.90;;;;;;4951052;28;20038;-86
2022/05/09 01:40:30;;;;;;;9.30;1.55;;;8.20;99.90;;;;;;4952610;28;20054;-86
2022/05/09 01:42:55;;;;;;;12.25;1.80;;;8.10;99.90;;;;;;4952815;28;20023;-86
2022/05/09 01:45:21;;;;;;;9.43;1.20;;;8.20;99.90;;;;;;4945693;28;20391;-86
2022/05/09 01:50:30;;;;;;;9.00;1.30;;;8.10;99.90;;;;;;4967310;28;20041;-85
2022/05/09 01:52:56;;;;;;;10.60;2.22;;;8.10;99.90;;;;;;4952034;28;20133;-85
2022/05/09 01:55:22;;;;;;;12.00;2.17;;;8.10;99.90;;;;;;4952221;28;20460;-85
2022/05/09 01:57:49;;;;;;;13.27;1.85;;;8.00;99.90;;;;;;4950217;28;20052;-85
2022/05/09 02:00:15;;;;;;;11.90;1.83;;;8.10;99.90;;;;;;4948878;28;20113;-85
2022/05/09 02:02:41;;;;;;;15.43;2.10;;;8.00;99.90;;;;;;4964558;28;20023;-86
2022/05/09 02:05:07;;;;;;;9.60;2.33;;;8.00;99.90;;;;;;4953433;28;20031;-85
2022/05/09 02:07:32;;;;;;;7.57;1.70;;;8.00;99.90;;;;;;4955558;28;20031;-85
2022/05/09 02:09:58;;;;;;;9.45;1.70;;;8.00;99.90;;;;;;4947342;28;20023;-85
2022/05/09 02:12:24;;;;;;;12.30;2.30;;;8.00;99.90;;;;;;4964378;28;20054;-85
2022/05/09 02:14:50;;;;;;;12.18;2.20;;;7.90;99.90;;;;;;4951991;28;20101;-85
2022/05/09 02:17:16;;;;;;;16.40;2.72;;;7.90;99.90;;;;;;4953400;28;20039;-86
2022/05/09 02:19:42;;;;;;;13.15;1.75;;;7.90;99.90;;;;;;4953404;28;20026;-84
2022/05/09 02:22:11;;;;;;;16.08;2.50;;;7.90;99.90;;;;;;4953080;28;20029;-85
2022/05/09 02:24:39;;;;;;;11.55;1.65;;;7.80;99.90;;;;;;4951068;28;20435;-85
2022/05/09 02:27:05;;;;;;;10.90;2.20;;;7.80;99.90;;;;;;4964334;28;20406;-84
2022/05/09 02:29:31;;;;;;;14.75;2.40;;;7.80;99.90;;;;;;4952037;28;20035;-85
2022/05/09 02:31:57;;;;;;;13.57;2.63;;;7.80;99.90;;;;;;4950155;28;20109;-85
2022/05/09 02:34:23;;;;;;;12.93;2.40;;;7.80;99.90;;;;;;4949526;28;20092;-85
2022/05/09 02:36:49;;;;;;;10.45;3.08;;;7.70;99.90;;;;;;4950918;28;20049;-85
2022/05/09 02:39:15;;;;;;;13.25;2.88;;;7.70;99.90;;;;;;4953316;28;20042;-85
2022/05/09 02:41:41;;;;;;;8.57;2.17;;;7.70;99.90;;;;;;4944434;28;20031;-85
2022/05/09 02:44:07;;;;;;;10.82;3.67;;;7.70;99.90;;;;;;4945728;28;20023;-86
2022/05/09 02:46:33;;;;;;;10.68;3.40;;;7.60;99.90;;;;;;4950606;28;20484;-85
2022/05/09 02:48:59;;;;;;;13.90;3.08;;;7.60;99.90;;;;;;4949858;28;20024;-85
2022/05/09 02:51:27;;;;;;;9.13;3.28;;;7.60;99.90;;;;;;4948881;28;20031;-85
2022/05/09 02:53:54;;;;;;;9.90;2.00;;;7.60;99.90;;;;;;4946378;28;20082;-87
2022/05/09 02:56:21;;;;;;;12.60;2.50;;;7.60;99.90;;;;;;4947713;28;20035;-86
2022/05/09 02:58:46;;;;;;;16.15;3.05;;;7.60;99.90;;;;;;4950815;28;20059;-85
2022/05/09 03:01:12;;;;;;;11.73;2.20;;;7.60;99.90;;;;;;4940180;28;20032;-86
2022/05/09 03:06:21;;;;;;;10.25;2.60;;;7.50;99.90;;;;;;4948063;28;20166;-85
2022/05/09 03:08:47;;;;;;;13.70;3.25;;;7.50;99.90;;;;;;4944450;28;20114;-85
2022/05/09 03:11:12;;;;;;;14.45;2.53;;;7.50;99.90;;;;;;4949140;28;20125;-86
2022/05/09 03:13:39;;;;;;;16.98;2.85;;;7.50;99.90;;;;;;4953380;28;20027;-86
2022/05/09 03:16:05;;;;;;;12.00;2.53;;;7.50;99.90;;;;;;4952452;28;20043;-86
2022/05/09 03:18:31;;;;;;;14.15;3.00;;;7.40;99.90;;;;;;4947815;28;20061;-85
2022/05/09 03:21:01;;;;;;;10.55;2.80;;;7.40;99.90;;;;;;4945044;28;20036;-85
2022/05/09 03:23:26;;;;;;;9.80;2.70;;;7.40;99.90;;;;;;4943275;28;20023;-85
2022/05/09 03:25:52;;;;;;;14.90;3.45;;;7.40;99.90;;;;;;4943554;28;20042;-85
2022/05/09 03:28:21;;;;;;;14.20;3.22;;;7.40;99.90;;;;;;4948502;28;20479;-85
2022/05/09 03:30:48;;;;;;;13.32;3.53;;;7.30;99.90;;;;;;4945750;28;20118;-86
2022/05/09 03:33:14;;;;;;;16.10;3.13;;;7.30;99.90;;;;;;4943658;28;20031;-85
2022/05/09 03:35:40;;;;;;;7.93;2.58;;;7.30;99.90;;;;;;4954803;28;20045;-86
2022/05/09 03:38:06;;;;;;;11.02;3.20;;;7.30;99.90;;;;;;4947151;28;20028;-86
2022/05/09 03:40:31;;;;;;;10.98;2.97;;;7.30;99.90;;;;;;4957993;28;20039;-85
2022/05/09 03:42:59;;;;;;;13.82;3.08;;;7.20;99.90;;;;;;4955836;28;20037;-86
2022/05/09 03:45:25;;;;;;;15.95;4.10;;;7.20;99.90;;;;;;4955653;28;20114;-86
2022/05/09 03:47:51;;;;;;;15.55;3.97;;;7.20;99.90;;;;;;4958881;28;20030;-87
2022/05/09 03:50:17;;;;;;;14.93;3.30;;;7.20;99.90;;;;;;4954660;28;20121;-86
2022/05/09 03:52:42;;;;;;;16.00;3.67;;;7.20;99.90;;;;;;4955518;28;20030;-86
2022/05/09 03:55:08;;;;;;;20.05;3.25;;;7.10;99.90;;;;;;4952639;28;20395;-86
2022/05/09 03:57:44;;;;;;;12.70;3.10;;;7.10;99.90;;;;;;4946736;28;20027;-86
2022/05/09 04:00:10;;;;;;;11.00;3.00;;;7.10;99.90;;;;;;4958547;28;20023;-87
2022/05/09 04:02:35;;;;;;;11.88;3.67;;;7.00;99.90;;;;;;4948795;28;20118;-88
2022/05/09 04:05:01;;;;;;;20.33;3.90;;;7.00;99.90;;;;;;4949884;28;20493;-86
2022/05/09 04:07:26;;;;;;;13.77;3.50;;;7.00;99.90;;;;;;4953377;28;20065;-86
2022/05/09 04:09:53;;;;;;;12.93;3.88;;;7.00;99.90;;;;;;4954629;28;20487;-87
2022/05/09 04:12:18;;;;;;;15.25;4.10;;;7.00;99.90;;;;;;4967182;28;20078;-87
2022/05/09 04:17:38;;;;;;;16.25;3.58;;;7.00;99.90;;;;;;4967838;28;20061;-88
2022/05/09 04:20:09;;;;;;;17.08;3.63;;;6.90;99.90;;;;;;4965221;28;20106;-87
2022/05/09 04:22:34;;;;;;;14.88;4.20;;;7.00;99.90;;;;;;4950324;28;20023;-87
2022/05/09 04:25:00;;;;;;;12.80;3.95;;;7.00;99.90;;;;;;4954834;28;20033;-88
2022/05/09 04:27:29;;;;;;;10.23;3.28;;;7.00;99.90;;;;;;4968228;28;20030;-87
2022/05/09 04:29:56;;;;;;;21.48;3.10;;;6.90;99.90;;;;;;4954162;28;20046;-87
2022/05/09 04:32:21;;;;;;;17.52;3.55;;;7.00;99.90;;;;;;4952360;28;20472;-87
2022/05/09 04:34:47;;;;;;;10.57;3.30;;;7.00;99.90;;;;;;4965000;28;20039;-87
2022/05/09 04:37:12;;;;;;;13.93;3.78;;;7.00;99.90;;;;;;4946461;28;20034;-87
2022/05/09 04:39:38;;;;;;;12.85;3.47;;;7.00;99.90;;;;;;4961114;28;20074;-87
2022/05/09 04:42:04;;;;;;;15.00;4.22;;;7.00;99.90;;;;;;4962094;28;20151;-86
2022/05/09 04:44:29;;;;;;;11.73;3.92;;;7.10;99.90;;;;;;4949806;28;20026;-88
2022/05/09 04:46:55;;;;;;;19.45;4.25;;;7.10;99.90;;;;;;4963752;28;20049;-87
2022/05/09 04:49:20;;;;;;;10.13;3.42;;;7.10;99.90;;;;;;4958365;28;20026;-87
2022/05/09 04:51:46;;;;;;;15.77;4.05;;;7.10;99.90;;;;;;4954260;28;20066;-87
2022/05/09 04:54:11;;;;;;;16.52;4.57;;;7.20;99.90;;;;;;4956362;28;20018;-87
2022/05/09 04:56:37;;;;;;;16.05;5.20;;;7.30;99.90;;;;;;4952581;28;20035;-88
2022/05/09 04:59:02;;;;;;;14.88;3.72;;;7.30;99.90;;;;;;4954525;28;20031;-87
2022/05/09 05:01:28;;;;;;;13.50;4.20;;;7.40;99.90;;;;;;4950788;28;20019;-88
2022/05/09 05:03:53;;;;;;;12.30;3.22;;;7.50;99.90;;;;;;4948173;28;20526;-87
2022/05/09 05:06:19;;;;;;;14.82;3.92;;;7.50;99.90;;;;;;4951298;28;20050;-87
2022/05/09 05:08:44;;;;;;;21.23;4.43;;;7.60;99.90;;;;;;4951050;28;20026;-88
2022/05/09 05:11:10;;;;;;;15.48;4.22;;;7.60;99.90;;;;;;4943539;28;20035;-87
2022/05/09 05:13:35;;;;;;;17.75;4.00;;;7.70;99.90;;;;;;4946300;28;20459;-87
2022/05/09 05:16:01;;;;;;;14.73;5.43;;;7.80;99.90;;;;;;4948983;28;20039;-87
2022/05/09 05:18:27;;;;;;;14.00;3.50;;;7.80;99.90;;;;;;4949186;28;20078;-87
2022/05/09 05:20:54;;;;;;;16.20;4.00;;;7.90;99.90;;;;;;4946031;28;20035;-87
2022/05/09 05:23:20;;;;;;;8.93;3.83;;;8.00;99.90;;;;;;4948076;28;20039;-88
2022/05/09 05:25:46;;;;;;;22.50;5.38;;;8.10;99.90;;;;;;4951614;28;20042;-87
2022/05/09 05:28:13;;;;;;;15.18;4.53;;;8.30;99.90;;;;;;4956291;28;20030;-87
2022/05/09 05:30:40;;;;;;;18.35;3.97;;;8.60;99.90;;;;;;4946375;28;20147;-87
2022/05/09 05:33:05;;;;;;;12.85;3.47;;;8.90;99.90;;;;;;4951708;28;20037;-87
2022/05/09 05:35:32;;;;;;;13.30;3.38;;;9.30;99.90;;;;;;4950468;28;20023;-87
2022/05/09 05:37:57;;;;;;;12.55;3.35;;;9.60;99.90;;;;;;4952704;28;20075;-87
2022/05/09 05:40:23;;;;;;;8.65;3.38;;;9.80;99.90;;;;;;4950534;28;20042;-88
2022/05/09 05:42:49;;;;;;;12.85;4.60;;;10.00;99.90;;;;;;4944116;28;20081;-86
2022/05/09 05:45:18;;;;;;;11.48;3.30;;;10.10;99.90;;;;;;4944587;28;20035;-88
2022/05/09 05:47:44;;;;;;;15.60;4.05;;;10.20;99.90;;;;;;4948780;28;20031;-88
2022/05/09 05:50:13;;;;;;;13.30;4.25;;;10.30;99.90;;;;;;4944490;28;20542;-88
2022/05/09 05:52:38;;;;;;;11.32;3.38;;;10.40;99.90;;;;;;4944109;28;20032;-88
2022/05/09 05:55:04;;;;;;;11.02;4.07;;;10.60;99.90;;;;;;4949192;28;20391;-88
2022/05/09 05:57:32;;;;;;;14.68;4.60;;;10.70;99.90;;;;;;4946024;28;20042;-88
2022/05/09 06:00:02;;;;;;;20.25;4.93;;;10.80;99.90;;;;;;4947664;28;20057;-88
2022/05/09 06:02:28;;;;;;;15.20;4.22;;;10.80;99.90;;;;;;4951713;28;20039;-88
2022/05/09 06:04:54;;;;;;;13.02;3.60;;;10.90;99.90;;;;;;4945908;28;20037;-88
2022/05/09 06:07:22;;;;;;;11.30;3.65;;;11.00;99.90;;;;;;4965688;28;20059;-87
2022/05/09 06:09:49;;;;;;;12.52;3.33;;;11.10;99.90;;;;;;4956322;28;20117;-88
2022/05/09 06:12:17;;;;;;;12.35;3.47;;;11.20;99.90;;;;;;4956003;28;20443;-87
2022/05/09 06:14:43;;;;;;;15.52;4.38;;;11.30;99.90;;;;;;4953379;28;20027;-86
2022/05/09 06:17:10;;;;;;;10.73;3.47;;;11.30;99.90;;;;;;4956425;28;20089;-87
2022/05/09 06:19:37;;;;;;;14.10;4.32;;;11.40;99.90;;;;;;4950480;28;20046;-87
2022/05/09 06:22:03;;;;;;;8.57;3.20;;;11.50;99.90;;;;;;4955473;28;20031;-87
2022/05/09 06:24:29;;;;;;;12.65;3.25;;;11.60;99.90;;;;;;4956814;28;20037;-87
2022/05/09 06:26:55;;;;;;;11.27;3.60;;;11.80;99.90;;;;;;4953249;28;20114;-87
2022/05/09 06:29:21;;;;;;;10.77;3.42;;;11.90;99.90;;;;;;4947335;28;20018;-86
2022/05/09 06:31:47;;;;;;;18.60;3.65;;;12.00;99.90;;;;;;4958332;28;20023;-87
2022/05/09 06:34:13;;;;;;;14.13;3.03;;;12.10;99.90;;;;;;4955078;28;20034;-86
2022/05/09 06:36:40;;;;;;;14.98;3.72;;;12.20;99.90;;;;;;4951519;28;20109;-87
2022/05/09 06:39:08;;;;;;;9.80;3.45;;;12.30;99.90;;;;;;4952837;28;20047;-87
2022/05/09 06:41:33;;;;;;;10.07;3.50;;;12.50;99.90;;;;;;4953366;29;20059;-87
2022/05/09 06:43:59;;;;;;;11.63;3.15;;;12.60;99.90;;;;;;4954977;28;20035;-88
2022/05/09 06:46:25;;;;;;;8.80;2.72;;;12.60;99.90;;;;;;4944547;28;20053;-88
2022/05/09 06:48:50;;;;;;;10.30;2.97;;;12.70;99.90;;;;;;4956768;28;20031;-86
2022/05/09 06:51:16;;;;;;;10.77;3.50;;;12.80;99.90;;;;;;4953907;28;20138;-87
2022/05/09 06:53:43;;;;;;;16.13;3.25;;;12.90;99.90;;;;;;4956409;28;20098;-87
2022/05/09 06:56:09;;;;;;;9.63;3.78;;;13.00;99.90;;;;;;4973736;28;20039;-87
2022/05/09 06:58:35;;;;;;;15.27;2.88;;;13.10;99.90;;;;;;4954561;28;20023;-87
2022/05/09 07:01:00;;;;;;;10.88;3.35;;;13.30;99.90;;;;;;4972416;28;20030;-86
2022/05/09 07:03:27;;;;;;;13.68;3.78;;;13.40;99.90;;;;;;4953990;28;20031;-87
2022/05/09 07:05:55;;;;;;;9.52;3.22;;;13.50;99.90;;;;;;4955839;28;20034;-87
2022/05/09 07:08:23;;;;;;;11.43;3.33;;;13.70;99.90;;;;;;4956664;28;20027;-87
2022/05/09 07:10:49;;;;;;;9.93;2.72;;;13.80;99.90;;;;;;4959522;28;20035;-87
2022/05/09 07:13:14;;;;;;;10.60;2.95;;;14.00;99.90;;;;;;4959693;28;20157;-87
2022/05/09 07:15:40;;;;;;;13.00;2.90;;;14.10;99.90;;;;;;4957067;28;20043;-87
2022/05/09 07:18:06;;;;;;;12.02;3.50;;;14.20;99.90;;;;;;4960090;28;20541;-87
2022/05/09 07:20:33;;;;;;;11.35;3.42;;;14.30;99.60;;;;;;4959744;28;20031;-87
2022/05/09 07:23:08;;;;;;;14.95;3.92;;;14.40;99.20;;;;;;4959640;28;20501;-87
2022/05/09 07:25:35;;;;;;;13.50;2.90;;;14.50;98.90;;;;;;4967192;28;20062;-87
2022/05/09 07:28:00;;;;;;;9.98;2.05;;;14.70;98.60;;;;;;4962298;28;20137;-87
2022/05/09 07:30:28;;;;;;;12.32;2.47;;;14.80;97.80;;;;;;4960084;28;20498;-87
2022/05/09 07:32:54;;;;;;;9.23;2.38;;;15.00;97.40;;;;;;4959267;28;20077;-86
2022/05/09 07:35:19;;;;;;;11.98;2.83;;;15.10;96.90;;;;;;4958737;28;20027;-85
2022/05/09 07:37:47;;;;;;;10.57;2.10;;;15.20;96.70;;;;;;4955566;28;20035;-85
2022/05/09 07:40:15;;;;;;;7.80;1.65;;;15.30;96.20;;;;;;4958493;28;20560;-85
2022/05/09 07:42:41;;;;;;;6.30;1.65;;;15.40;95.60;;;;;;4958133;28;20025;-85
2022/05/09 07:45:09;;;;;;;8.55;1.50;;;15.50;94.90;;;;;;4965775;28;20031;-85
2022/05/09 07:47:34;;;;;;;7.82;1.40;;;15.70;94.40;;;;;;4957170;28;20054;-85
2022/05/09 07:50:01;;;;;;;9.68;1.70;;;15.80;93.80;;;;;;4976147;28;20446;-84
2022/05/09 07:52:27;;;;;;;7.68;1.35;;;15.90;93.00;;;;;;4975983;28;20042;-84
2022/05/09 07:54:52;;;;;;;10.55;1.40;;;16.00;92.80;;;;;;4973068;28;20035;-86
2022/05/09 07:57:18;;;;;;;8.18;1.30;;;16.10;92.40;;;;;;4971272;28;20441;-85
2022/05/09 07:59:43;;;;;;;9.10;1.25;;;16.30;91.80;;;;;;4958633;28;20547;-85
2022/05/09 08:02:09;;;;;;;6.97;1.27;;;16.50;91.30;;;;;;4956154;28;20031;-85
2022/05/09 08:04:35;;;;;;;10.73;1.70;;;16.60;90.30;;;;;;4948738;28;20062;-85
2022/05/09 08:07:04;;;;;;;7.88;1.35;;;16.70;90.20;;;;;;4958471;28;20030;-85
2022/05/09 08:09:29;;;;;;;8.95;2.05;;;16.80;89.40;;;;;;4948580;28;20031;-85
2022/05/09 08:11:57;;;;;;;9.85;1.50;;;17.00;88.20;;;;;;4958533;28;20450;-85
2022/05/09 08:14:23;;;;;;;5.93;1.23;;;17.10;87.10;;;;;;4958228;28;20406;-85
2022/05/09 08:16:49;;;;;;;5.32;1.25;;;17.20;87.10;;;;;;4970550;28;20039;-87
2022/05/09 08:19:14;;;;;;;6.90;1.20;;;17.40;86.40;;;;;;4957040;28;20133;-86
2022/05/09 08:21:40;;;;;;;7.47;1.40;;;17.50;84.90;;;;;;4959834;28;20054;-86
2022/05/09 08:24:08;;;;;;;5.80;1.05;;;17.60;83.50;;;;;;4959133;28;20018;-86
2022/05/09 08:26:34;;;;;;;8.82;1.58;;;17.70;83.20;;;;;;4954663;28;20033;-86
2022/05/09 08:29:00;;;;;;;5.43;1.10;;;17.80;82.30;;;;;;4958696;28;20027;-84
2022/05/09 08:31:26;;;;;;;8.13;1.25;;;17.90;81.90;;;;;;4954006;28;20130;-84
2022/05/09 08:33:53;;;;;;;7.38;1.00;;;17.90;81.70;;;;;;4958426;28;20503;-84
2022/05/09 08:39:05;;;;;;;5.55;1.23;;;18.20;79.80;;;;;;4959666;28;20098;-84
2022/05/09 08:41:56;;;;;;;5.28;1.33;;;18.20;77.10;;;;;;4953890;29;20494;-84
2022/05/09 08:44:53;;;;;;;7.68;1.33;;;18.30;75.40;;;;;;4956203;28;20026;-84
2022/05/09 08:47:36;;;;;;;6.32;1.08;;;18.30;74.80;;;;;;4956874;28;20033;-85
2022/05/09 08:50:10;;;;;;;6.03;1.10;;;18.30;74.60;;;;;;4951191;28;20031;-84
2022/05/09 08:52:49;;;;;;;11.80;1.08;;;18.40;74.70;;;;;;4950933;28;20027;-85
2022/05/09 08:55:19;;;;;;;9.68;1.58;;;18.60;74.10;;;;;;4974215;28;20026;-86
2022/05/09 08:57:52;;;;;;;6.75;1.35;;;18.70;74.50;;;;;;4959185;28;20031;-86
2022/05/09 09:00:20;;;;;;;5.95;0.82;;;18.80;73.80;;;;;;4957656;28;20446;-85
2022/05/09 09:03:12;;;;;;;9.02;1.55;;;18.80;73.60;;;;;;4952742;28;20062;-86
2022/05/09 09:05:42;;;;;;;14.30;1.90;;;19.00;73.80;;;;;;4964853;28;20042;-85
2022/05/09 09:08:29;;;;;;;5.22;1.00;;;19.00;74.10;;;;;;4955857;28;20371;-85
2022/05/09 09:11:16;;;;;;;4.50;1.25;;;19.10;73.00;;;;;;4957233;28;20027;-85
2022/05/09 09:13:48;;;;;;;8.75;2.08;;;19.20;72.30;;;;;;4957509;28;20027;-85
2022/05/09 09:16:15;;;;;;;8.98;1.60;;;19.20;71.30;;;;;;4957217;28;20039;-86
2022/05/09 09:19:08;;;;;;;8.68;1.98;;;19.20;70.70;;;;;;4956995;28;20026;-85
2022/05/09 09:21:57;;;;;;;7.45;1.52;;;19.30;69.10;;;;;;4955549;28;20542;-84
2022/05/09 09:24:29;;;;;;;6.80;1.55;;;19.20;69.70;;;;;;4957143;28;20411;-85
2022/05/09 09:27:19;;;;;;;6.25;1.30;;;19.30;68.80;;;;;;4950661;28;20038;-85
2022/05/09 09:29:49;;;;;;;4.97;1.10;;;19.40;69.40;;;;;;4938546;28;20031;-85
2022/05/09 09:32:22;;;;;;;11.00;1.23;;;19.40;69.50;;;;;;4946137;28;20037;-85
2022/05/09 09:35:03;;;;;;;4.20;0.98;;;19.40;69.60;;;;;;4957629;28;20070;-85
2022/05/09 09:37:53;;;;;;;4.15;0.75;;;19.50;68.90;;;;;;4957392;28;20094;-85
2022/05/09 09:40:18;;;;;;;8.23;1.60;;;19.60;68.30;;;;;;4951211;28;20120;-85
2022/05/09 09:42:44;;;;;;;5.47;1.40;;;19.60;67.10;;;;;;4959668;28;20493;-84
2022/05/09 09:45:35;;;;;;;5.47;0.65;;;19.70;67.20;;;;;;4954266;28;20411;-85
2022/05/09 09:48:09;;;;;;;5.72;1.13;;;19.80;66.10;;;;;;4948452;28;20076;-85
2022/05/09 09:50:35;;;;;;;9.75;1.40;;;19.80;65.00;;;;;;4954942;28;20086;-85
2022/05/09 09:53:02;;;;;;;5.93;0.80;;;19.80;63.90;;;;;;4955510;28;20471;-85
2022/05/09 09:55:36;;;;;;;7.53;1.25;;;19.90;65.00;;;;;;4956193;28;20050;-85
2022/05/09 09:58:19;;;;;;;7.15;1.40;;;20.00;65.00;;;;;;4957017;28;20027;-86
2022/05/09 10:00:45;;;;;;;5.72;1.20;;;20.00;63.40;;;;;;4956737;28;20521;-86
2022/05/09 10:03:18;;;;;;;9.23;1.75;;;20.00;63.20;;;;;;4956792;28;20031;-85
2022/05/09 10:05:45;;;;;;;6.18;1.40;;;20.00;63.70;;;;;;4957553;28;20165;-86
2022/05/09 10:08:30;;;;;;;4.15;0.90;;;20.00;64.80;;;;;;4970460;28;20389;-86
2022/05/09 10:11:08;;;;;;;5.65;1.13;;;20.20;64.20;;;;;;4965071;28;20125;-86
2022/05/09 10:13:36;;;;;;;6.82;1.23;;;20.20;63.30;;;;;;4951152;28;20118;-85
2022/05/09 10:16:11;;;;;;;6.65;1.60;;;20.30;62.60;;;;;;4953527;28;20755;-86
2022/05/09 10:18:37;;;;;;;5.55;2.15;;;20.40;62.20;;;;;;4953192;28;20387;-85
2022/05/09 10:24:47;;;;;;;7.93;1.98;;;20.40;62.00;;;;;;4957848;28;20038;-86
2022/05/09 10:27:03;;;;;;;6.40;1.10;;;20.40;62.50;;;;;;4973678;28;20077;-85
2022/05/09 10:29:37;;;;;;;7.45;1.23;;;20.40;62.20;;;;;;4956556;28;20051;-86
2022/05/09 10:32:08;;;;;;;6.60;1.50;;;20.40;61.70;;;;;;4956481;28;20039;-84
2022/05/09 10:34:55;;;;;;;9.43;1.38;;;20.60;61.90;;;;;;4961263;28;20027;-83
2022/05/09 10:37:40;;;;;;;6.30;1.50;;;20.60;62.10;;;;;;4951517;28;20039;-84
2022/05/09 10:40:11;;;;;;;7.07;1.35;;;20.80;62.50;;;;;;4946634;28;20058;-84
2022/05/09 10:42:44;;;;;;;7.60;1.60;;;20.90;62.60;;;;;;4954854;28;20033;-86
2022/05/09 10:45:28;;;;;;;6.35;1.33;;;21.00;62.80;;;;;;4950340;28;20033;-86
2022/05/09 10:48:01;;;;;;;4.40;1.23;;;21.20;62.30;;;;;;4950706;28;20026;-85
2022/05/09 10:50:33;;;;;;;9.05;1.40;;;21.20;61.70;;;;;;4973772;28;20027;-86
2022/05/09 10:53:53;;;;;;;6.57;1.15;;;21.30;61.90;;;;;;4956475;28;20089;-85
2022/05/09 10:56:35;;;;;;;5.55;1.15;;;21.50;61.70;;;;;;4956098;28;20046;-85
2022/05/09 10:59:10;;;;;;;6.03;1.00;;;21.50;61.50;;;;;;4955920;28;20034;-85
2022/05/09 11:01:56;;;;;;;5.78;1.08;;;21.70;61.70;;;;;;4955872;28;20031;-85
2022/05/09 11:04:24;;;;;;;8.32;1.17;;;21.80;61.40;;;;;;4954015;28;20027;-86
2022/05/09 11:07:16;;;;;;;5.25;1.05;;;21.90;61.20;;;;;;4956307;28;20173;-85
2022/05/09 11:10:10;;;;;;;5.38;1.27;;;22.10;60.80;;;;;;4956062;28;20027;-85
2022/05/09 11:12:39;;;;;;;6.22;0.85;;;22.20;59.00;;;;;;4954639;28;20087;-86
2022/05/09 11:15:14;;;;;;;5.90;1.10;;;22.10;59.40;;;;;;4954944;28;20066;-85
2022/05/09 11:17:51;;;;;;;10.18;1.63;;;22.20;58.60;;;;;;4957992;28;20038;-86
2022/05/09 11:20:37;;;;;;;4.53;1.25;;;22.30;58.40;;;;;;4962380;28;20030;-85
2022/05/09 11:23:02;;;;;;;4.43;1.02;;;22.30;58.20;;;;;;4951095;28;20039;-85
2022/05/09 11:25:36;;;;;;;8.35;1.20;;;22.40;58.20;;;;;;4952921;28;20479;-86
2022/05/09 11:28:18;;;;;;;4.32;1.08;;;22.40;58.20;;;;;;4970975;28;20027;-85
2022/05/09 11:30:50;;;;;;;7.28;0.95;;;22.50;57.70;;;;;;4969059;28;20030;-86
2022/05/09 11:33:22;;;;;;;;;;;22.50;56.80;;;;;;4956307;28;20542;-86
2022/05/09 11:35:51;;;;;;;4.18;0.98;;;22.40;56.70;;;;;;4955603;28;19924;-85
2022/05/09 11:38:41;;;;;;;4.57;1.10;;;22.30;56.50;;;;;;4955432;28;20081;-85
2022/05/09 11:41:23;;;;;;;7.32;1.52;;;22.30;56.10;;;;;;4949346;28;20038;-85
2022/05/09 11:44:30;;;;;;;5.40;1.00;;;22.40;57.40;;;;;;4955089;28;20061;-86
2022/05/09 11:47:14;;;;;;;7.15;1.30;;;22.50;56.20;;;;;;4949922;28;20030;-86
2022/05/09 11:49:54;;;;;;;6.20;1.10;;;22.70;56.00;;;;;;4969502;28;20093;-87
2022/05/09 11:52:34;;;;;;;5.22;0.90;;;22.80;56.00;;;;;;4957717;28;20035;-86
2022/05/09 11:55:22;;;;;;;4.45;1.23;;;23.00;55.50;;;;;;4956186;28;20042;-86
2022/05/09 11:57:55;;;;;;;5.25;1.42;;;23.10;55.70;;;;;;4958108;28;20073;-86
2022/05/09 12:00:29;;;;;;;6.03;1.40;;;23.10;55.10;;;;;;4958660;28;20019;-86
2022/05/09 12:02:57;;;;;;;4.80;1.40;;;23.10;54.80;;;;;;4960961;28;20090;-86
2022/05/09 12:05:29;;;;;;;6.80;1.45;;;23.20;54.30;;;;;;4960394;28;20056;-85
2022/05/09 12:08:44;;;;;;;6.88;1.85;;;23.20;54.90;;;;;;4975358;28;20082;-85
2022/05/09 12:11:25;;;;;;;6.22;1.60;;;23.30;54.80;;;;;;4959328;28;20511;-85
2022/05/09 12:13:53;;;;;;;5.70;1.53;;;23.40;54.70;;;;;;4944461;29;20066;-85
2022/05/09 12:16:37;;;;;;;4.32;1.63;;;23.40;54.30;;;;;;4959279;28;20419;-86
2022/05/09 12:19:13;;;;;;;6.95;1.70;;;23.40;54.10;;;;;;4955611;29;20035;-84
2022/05/09 12:21:41;;;;;;;5.55;2.13;;;23.50;54.40;;;;;;4957535;28;20399;-85
2022/05/09 12:24:18;;;;;;;4.03;1.90;;;23.50;54.20;;;;;;4957067;28;20464;-85
2022/05/09 12:26:47;;;;;;;6.15;1.73;;;23.50;53.30;;;;;;4955862;29;20146;-85
2022/05/09 12:29:12;;;;;;;6.68;2.50;;;23.60;54.30;;;;;;4956298;28;20078;-85
2022/05/09 12:31:57;;;;;;;9.68;2.45;;;23.70;53.50;;;;;;4958133;28;20039;-85
2022/05/09 12:34:27;;;;;;;5.35;2.17;;;23.70;53.50;;;;;;4953554;29;20097;-85
2022/05/09 12:36:53;;;;;;;5.85;2.20;;;23.70;53.30;;;;;;4958474;28;20058;-84
2022/05/09 12:39:27;;;;;;;7.22;2.17;;;23.70;53.50;;;;;;4959265;28;20047;-84
2022/05/09 12:41:58;;;;;;;5.93;2.35;;;23.70;53.70;;;;;;4941565;28;20077;-84
2022/05/09 12:44:39;;;;;;;3.63;1.80;;;23.80;53.50;;;;;;4954273;28;20022;-85
2022/05/09 12:47:05;;;;;;;3.67;1.70;;;23.90;53.30;;;;;;4958221;28;20027;-85
2022/05/09 12:49:43;;;;;;;6.45;2.25;;;23.90;53.40;;;;;;4944995;29;20050;-84
2022/05/09 12:52:12;;;;;;;5.07;2.10;;;24.00;54.00;;;;;;4953004;28;20482;-84
2022/05/09 12:54:39;;;;;;;5.55;2.25;;;24.20;54.30;;;;;;4956173;28;20027;-85
2022/05/09 12:57:06;;;;;;;9.57;2.25;;;24.30;53.50;;;;;;4971308;28;20035;-90
2022/05/09 12:59:52;;;;;;;7.03;2.40;;;24.50;53.00;;;;;;4959803;28;20089;-90
2022/05/09 13:02:20;;;;;;;5.43;2.00;;;24.60;52.90;;;;;;4965936;28;20029;-90
2022/05/09 13:04:48;;;;;;;6.22;2.92;;;24.60;52.60;;;;;;4959246;28;20364;-90
2022/05/09 13:07:14;;;;;;;9.68;2.05;;;24.60;51.70;;;;;;4957519;28;20031;-91
2022/05/09 13:09:52;;;;;;;8.73;2.33;;;24.60;52.30;;;;;;4957018;28;20030;-91
2022/05/09 13:12:41;;;;;;;8.75;2.05;;;24.70;52.80;;;;;;4949423;28;20049;-91
2022/05/09 13:15:16;;;;;;;6.95;2.33;;;24.90;52.90;;;;;;4969521;28;20019;-92
2022/05/09 13:18:03;;;;;;;6.03;2.67;;;25.00;53.00;;;;;;4955025;28;20114;-91